createdAt,value
2023-02-13T00:08:18.007Z,6.56
2023-02-13T00:18:21.652Z,6.62
2023-02-13T00:28:27.704Z,6.72
2023-02-13T00:38:32.324Z,6.68
2023-02-13T00:48:37.641Z,6.76
2023-02-13T00:58:42.937Z,6.66
2023-02-13T01:08:46.861Z,6.63
2023-02-13T01:18:51.940Z,6.57
2023-02-13T01:28:55.762Z,6.60
2023-02-13T01:39:00.044Z,6.70
2023-02-13T01:49:12.141Z,6.69
2023-02-13T01:59:29.908Z,6.77
2023-02-13T02:09:39.355Z,6.79
2023-02-13T02:19:54.777Z,6.93
2023-02-13T02:30:31.740Z,6.90
2023-02-13T02:40:49.607Z,6.97
2023-02-13T02:51:11.074Z,7.03
2023-02-13T03:01:38.000Z,7.06
2023-02-13T03:12:06.391Z,7.05
2023-02-13T03:22:26.361Z,7.15
2023-02-13T03:32:41.880Z,7.13
2023-02-13T03:42:53.649Z,7.02
2023-02-13T03:53:06.583Z,7.11
2023-02-13T04:03:12.107Z,7.10
2023-02-13T04:13:42.352Z,7.16
2023-02-13T04:23:45.984Z,7.10
2023-02-13T04:33:54.604Z,7.08
2023-02-13T04:43:59.840Z,7.14
2023-02-13T04:54:05.617Z,7.03
2023-02-13T05:04:09.336Z,6.95
2023-02-13T05:14:13.832Z,6.90
2023-02-13T05:24:20.193Z,6.81
2023-02-13T05:34:26.728Z,6.90
2023-02-13T05:44:31.588Z,6.87
2023-02-13T05:54:37.350Z,6.88
2023-02-13T06:04:41.618Z,6.96
2023-02-13T06:14:45.223Z,7.05
2023-02-13T06:24:48.971Z,7.10
2023-02-13T06:34:54.661Z,7.19
2023-02-13T06:44:58.569Z,7.19
2023-02-13T06:55:05.745Z,7.26
2023-02-13T07:05:12.065Z,7.21
2023-02-13T07:15:17.752Z,7.24
2023-02-13T07:25:21.316Z,7.32
2023-02-13T07:35:25.329Z,7.41
2023-02-13T07:45:30.226Z,7.42
2023-02-13T07:55:34.847Z,7.64
2023-02-13T08:05:39.165Z,7.70
2023-02-13T08:15:44.768Z,7.86
2023-02-13T08:25:50.048Z,8.04
2023-02-13T08:35:57.184Z,8.21
2023-02-13T08:46:01.460Z,8.41
2023-02-13T08:56:06.842Z,8.71
2023-02-13T09:06:12.548Z,8.89
2023-02-13T09:16:16.713Z,8.84
2023-02-13T09:26:22.100Z,9.20
2023-02-13T09:36:25.841Z,9.73
2023-02-13T09:46:38.417Z,9.66
2023-02-13T09:57:00.976Z,9.53
2023-02-13T10:07:23.584Z,9.55
2023-02-13T10:17:36.092Z,9.33
2023-02-13T10:27:44.750Z,9.07
2023-02-13T10:37:51.928Z,9.08
2023-02-13T10:48:27.078Z,8.96
2023-02-13T10:58:59.681Z,8.77
2023-02-13T11:09:06.295Z,8.81
2023-02-13T11:19:23.627Z,8.85
2023-02-13T11:29:33.108Z,8.80
2023-02-13T11:39:36.775Z,8.66
2023-02-13T11:49:46.651Z,8.72
2023-02-13T11:59:52.790Z,8.79
2023-02-13T12:10:12.820Z,8.79
2023-02-13T12:20:18.120Z,8.68
2023-02-13T12:30:55.817Z,8.51
2023-02-13T12:41:33.629Z,8.45
2023-02-13T12:52:02.176Z,8.72
2023-02-13T13:02:12.080Z,8.85
2023-02-13T13:12:30.637Z,8.78
2023-02-13T13:22:51.389Z,8.86
2023-02-13T13:33:08.712Z,8.73
2023-02-13T13:43:31.689Z,8.89
2023-02-13T13:53:38.373Z,9.13
2023-02-13T14:03:56.608Z,9.35
2023-02-13T14:14:22.642Z,9.12
2023-02-13T14:24:26.399Z,8.93
2023-02-13T14:34:33.674Z,8.89
2023-02-13T14:44:51.579Z,8.92
2023-02-13T14:55:18.242Z,8.90
2023-02-13T15:05:24.543Z,8.84
2023-02-13T15:15:29.511Z,8.65
2023-02-13T15:25:39.544Z,8.69
2023-02-13T15:35:43.321Z,8.54
2023-02-13T15:45:49.080Z,8.34
2023-02-13T15:56:15.438Z,8.01
2023-02-13T16:06:21.695Z,7.41
2023-02-13T16:16:26.529Z,7.38
2023-02-13T16:26:31.861Z,7.08
2023-02-13T16:36:35.524Z,6.95
2023-02-13T16:46:53.731Z,6.82
2023-02-13T16:57:06.690Z,6.66
2023-02-13T17:07:19.446Z,6.78
2023-02-13T17:17:24.284Z,6.78
2023-02-13T17:27:28.285Z,6.87
2023-02-13T17:37:33.037Z,6.97
2023-02-13T17:47:36.867Z,6.79
2023-02-13T17:57:40.602Z,6.78
2023-02-13T18:07:47.291Z,6.76
2023-02-13T18:17:50.944Z,6.73
2023-02-13T18:27:55.691Z,6.78
2023-02-13T18:37:59.595Z,6.71
2023-02-13T18:48:05.790Z,6.75
2023-02-13T18:58:11.348Z,6.71
2023-02-13T19:08:15.149Z,6.77
2023-02-13T19:18:20.936Z,6.74
2023-02-13T19:28:25.486Z,6.76
2023-02-13T19:38:29.135Z,6.79
2023-02-13T19:48:33.033Z,6.75
2023-02-13T19:58:39.554Z,6.60
2023-02-13T20:08:48.228Z,6.63
2023-02-13T20:18:52.528Z,6.63
2023-02-13T20:28:59.965Z,6.69
2023-02-13T20:39:08.063Z,6.75
2023-02-13T20:49:23.425Z,6.61
2023-02-13T20:59:30.887Z,6.52
2023-02-13T21:09:38.096Z,6.63
2023-02-13T21:19:41.815Z,6.65
2023-02-13T21:29:47.354Z,6.55
2023-02-13T21:39:50.850Z,6.55
2023-02-13T21:49:54.558Z,6.59
2023-02-13T22:00:02.176Z,6.48
2023-02-13T22:10:16.050Z,6.23
2023-02-13T22:20:22.455Z,6.33
2023-02-13T22:30:26.248Z,6.31
2023-02-13T22:40:31.385Z,6.27
2023-02-13T22:50:35.505Z,6.14
2023-02-13T23:00:39.953Z,6.11
2023-02-13T23:11:04.952Z,6.00
2023-02-13T23:21:10.210Z,5.92
2023-02-13T23:31:13.980Z,5.80
2023-02-13T23:41:17.653Z,5.74
2023-02-13T23:51:23.259Z,5.66
